createdAt,value
2022-10-31T00:02:35.461Z,15.67
2022-10-31T00:07:20.829Z,11.98
2022-10-31T00:12:06.470Z,14.50
2022-10-31T00:16:54.039Z,32.72
2022-10-31T00:21:39.647Z,32.63
2022-10-31T00:26:24.678Z,38.55
2022-10-31T00:31:11.550Z,29.83
2022-10-31T00:35:59.639Z,32.50
2022-10-31T00:40:44.923Z,33.55
2022-10-31T00:45:29.882Z,23.75
2022-10-31T00:50:15.148Z,15.25
2022-10-31T00:55:02.854Z,18.40
2022-10-31T00:59:48.084Z,18.58
2022-10-31T01:04:33.062Z,19.08
2022-10-31T01:09:18.402Z,18.13
2022-10-31T01:14:06.154Z,17.55
2022-10-31T01:18:51.428Z,17.48
2022-10-31T01:23:36.796Z,15.07
2022-10-31T01:28:22.164Z,14.35
2022-10-31T01:33:09.822Z,12.32
2022-10-31T01:37:55.077Z,12.70
2022-10-31T01:42:40.075Z,18.17
2022-10-31T01:47:39.055Z,15.63
2022-10-31T01:52:31.232Z,13.93
2022-10-31T01:57:18.513Z,17.95
2022-10-31T02:02:03.855Z,15.50
2022-10-31T02:06:53.936Z,15.52
2022-10-31T02:11:42.477Z,16.15
2022-10-31T02:16:27.883Z,15.18
2022-10-31T02:21:20.888Z,17.75
2022-10-31T02:26:44.154Z,13.65
2022-10-31T02:31:38.979Z,9.90
2022-10-31T02:36:30.610Z,9.43
2022-10-31T02:41:26.512Z,12.73
2022-10-31T02:46:18.132Z,10.95
2022-10-31T02:51:08.239Z,7.68
2022-10-31T02:56:03.175Z,8.82
2022-10-31T03:00:59.451Z,8.63
2022-10-31T03:05:59.655Z,10.20
2022-10-31T03:10:51.235Z,8.10
2022-10-31T03:15:40.313Z,7.93
2022-10-31T03:20:31.773Z,9.85
2022-10-31T03:25:17.943Z,8.00
2022-10-31T03:30:09.486Z,9.65
2022-10-31T03:34:57.848Z,10.23
2022-10-31T03:39:45.735Z,11.07
2022-10-31T03:44:33.335Z,10.55
2022-10-31T03:49:21.522Z,10.45
2022-10-31T03:54:12.931Z,9.48
2022-10-31T03:59:04.714Z,11.15
2022-10-31T04:03:50.217Z,12.68
2022-10-31T04:08:43.264Z,12.70
2022-10-31T04:13:33.060Z,11.35
2022-10-31T04:18:18.556Z,14.68
2022-10-31T04:23:04.036Z,18.08
2022-10-31T04:27:51.945Z,18.23
2022-10-31T04:32:36.955Z,25.80
2022-10-31T04:37:22.226Z,18.23
2022-10-31T04:42:07.520Z,16.20
2022-10-31T04:46:55.411Z,22.80
2022-10-31T04:51:40.475Z,22.33
2022-10-31T04:56:25.941Z,29.30
2022-10-31T05:01:11.031Z,25.42
2022-10-31T05:05:59.005Z,25.80
2022-10-31T05:10:44.291Z,27.45
2022-10-31T05:15:31.185Z,26.88
2022-10-31T05:20:17.878Z,28.95
2022-10-31T05:25:05.800Z,29.42
2022-10-31T05:29:50.864Z,27.55
2022-10-31T05:34:36.176Z,28.30
2022-10-31T05:39:21.859Z,34.83
2022-10-31T05:44:09.898Z,27.23
2022-10-31T05:48:57.520Z,24.63
2022-10-31T05:53:45.319Z,27.58
2022-10-31T05:58:30.304Z,29.15
2022-10-31T06:03:18.188Z,26.60
2022-10-31T06:08:03.682Z,26.50
2022-10-31T06:12:49.314Z,24.63
2022-10-31T06:17:34.324Z,25.50
2022-10-31T06:22:22.191Z,24.85
2022-10-31T06:27:07.507Z,29.85
2022-10-31T06:31:56.088Z,25.98
2022-10-31T06:36:41.046Z,25.30
2022-10-31T06:41:28.922Z,29.58
2022-10-31T06:46:13.886Z,26.15
2022-10-31T06:51:01.807Z,25.67
2022-10-31T06:55:47.092Z,25.35
2022-10-31T07:00:35.576Z,24.10
2022-10-31T07:05:20.575Z,26.95
2022-10-31T07:10:07.179Z,31.77
2022-10-31T07:14:52.239Z,24.30
2022-10-31T07:19:40.173Z,24.83
2022-10-31T07:24:25.185Z,26.85
2022-10-31T07:29:10.596Z,28.95
2022-10-31T07:33:55.604Z,25.98
2022-10-31T07:38:43.498Z,28.27
2022-10-31T07:43:28.652Z,31.88
2022-10-31T07:48:13.894Z,30.90
2022-10-31T07:53:06.347Z,27.25
2022-10-31T07:58:03.334Z,30.70
2022-10-31T08:02:48.533Z,33.78
2022-10-31T08:07:34.040Z,30.85
2022-10-31T08:12:19.018Z,33.38
2022-10-31T08:17:06.935Z,28.88
2022-10-31T08:21:56.055Z,27.05
2022-10-31T08:26:41.767Z,33.67
2022-10-31T08:31:33.326Z,30.00
2022-10-31T08:36:21.851Z,31.38
2022-10-31T08:41:06.838Z,37.28
2022-10-31T08:45:55.574Z,31.05
2022-10-31T08:50:41.267Z,25.10
2022-10-31T08:55:29.115Z,32.42
2022-10-31T09:00:15.191Z,29.05
2022-10-31T09:05:00.463Z,27.00
2022-10-31T09:09:45.448Z,28.88
2022-10-31T09:14:33.341Z,31.35
2022-10-31T09:19:18.324Z,25.88
2022-10-31T09:24:03.604Z,28.95
2022-10-31T09:28:48.726Z,30.20
2022-10-31T09:33:36.580Z,23.38
2022-10-31T09:38:24.461Z,27.13
2022-10-31T09:43:18.938Z,31.60
2022-10-31T09:48:18.980Z,25.92
2022-10-31T09:53:13.134Z,25.20
2022-10-31T09:57:58.598Z,24.02
2022-10-31T10:02:49.101Z,30.27
2022-10-31T10:07:50.572Z,27.35
2022-10-31T10:12:52.588Z,26.08
2022-10-31T10:22:34.535Z,24.02
2022-10-31T10:27:27.866Z,28.15
2022-10-31T10:32:23.539Z,27.08
2022-10-31T10:37:24.991Z,21.33
2022-10-31T10:42:28.576Z,28.35
2022-10-31T10:47:29.027Z,26.23
2022-10-31T10:52:50.262Z,25.80
2022-10-31T10:57:47.733Z,22.47
2022-10-31T11:02:37.184Z,21.15
2022-10-31T11:07:22.811Z,23.70
2022-10-31T11:12:12.771Z,24.88
2022-10-31T11:17:12.324Z,20.90
2022-10-31T11:22:10.389Z,22.73
2022-10-31T11:26:55.880Z,23.42
2022-10-31T11:31:41.269Z,26.70
2022-10-31T11:36:29.103Z,26.92
2022-10-31T11:41:20.681Z,27.98
2022-10-31T11:46:13.607Z,23.58
2022-10-31T11:51:01.057Z,24.92
2022-10-31T11:55:46.126Z,21.90
2022-10-31T12:00:36.691Z,23.42
2022-10-31T12:05:26.190Z,24.30
2022-10-31T12:10:17.566Z,26.10
2022-10-31T12:15:20.434Z,22.87
2022-10-31T12:20:21.039Z,21.35
2022-10-31T12:25:25.840Z,19.08
2022-10-31T12:30:24.009Z,28.27
2022-10-31T12:35:41.246Z,26.77
2022-10-31T12:40:44.955Z,24.60
2022-10-31T12:45:44.499Z,22.58
2022-10-31T12:50:38.973Z,21.65
2022-10-31T12:55:52.355Z,17.45
2022-10-31T13:00:42.088Z,21.20
2022-10-31T13:05:34.958Z,19.50
2022-10-31T13:10:25.076Z,25.45
2022-10-31T13:15:20.418Z,19.35
2022-10-31T13:20:23.593Z,20.85
2022-10-31T13:25:17.747Z,18.52
2022-10-31T13:30:06.832Z,20.52
2022-10-31T13:34:57.915Z,23.95
2022-10-31T13:39:54.438Z,20.80
2022-10-31T13:44:41.275Z,18.38
2022-10-31T13:49:44.306Z,15.90
2022-10-31T13:54:37.188Z,23.02
2022-10-31T13:59:25.126Z,20.02
2022-10-31T14:04:24.703Z,14.25
2022-10-31T14:09:23.399Z,13.20
2022-10-31T14:14:15.665Z,12.63
2022-10-31T14:19:05.430Z,16.40
2022-10-31T14:23:52.497Z,15.77
2022-10-31T14:28:39.919Z,17.30
2022-10-31T14:33:30.692Z,18.77
2022-10-31T14:38:41.040Z,15.27
2022-10-31T14:43:46.648Z,18.88
2022-10-31T14:49:01.394Z,15.07
2022-10-31T14:53:52.383Z,19.02
2022-10-31T14:58:43.937Z,20.27
2022-10-31T15:08:30.678Z,16.98
2022-10-31T15:13:23.752Z,14.30
2022-10-31T15:18:09.719Z,16.45
2022-10-31T15:22:55.090Z,12.25
2022-10-31T15:27:44.149Z,13.23
2022-10-31T15:32:33.091Z,13.18
2022-10-31T15:37:19.614Z,13.38
2022-10-31T15:42:05.143Z,14.75
2022-10-31T15:46:57.086Z,11.40
2022-10-31T15:51:46.457Z,15.25
2022-10-31T15:56:36.361Z,19.20
2022-10-31T16:01:29.873Z,16.73
2022-10-31T16:06:24.455Z,16.90
2022-10-31T16:11:28.200Z,18.27
2022-10-31T16:21:29.424Z,18.10
2022-10-31T16:26:20.996Z,19.52
2022-10-31T16:31:19.960Z,21.10
2022-10-31T16:36:30.116Z,21.15
2022-10-31T16:41:11.550Z,19.08
2022-10-31T16:45:56.584Z,19.33
2022-10-31T16:50:45.627Z,21.13
2022-10-31T16:55:30.655Z,21.35
2022-10-31T17:00:22.239Z,18.23
2022-10-31T17:05:08.407Z,22.10
2022-10-31T17:09:56.319Z,18.88
2022-10-31T17:14:41.309Z,20.17
2022-10-31T17:19:26.564Z,24.20
2022-10-31T17:24:15.452Z,23.10
2022-10-31T17:29:03.812Z,24.85
2022-10-31T17:33:48.846Z,30.55
2022-10-31T17:38:34.135Z,25.98
2022-10-31T17:43:19.128Z,27.33
2022-10-31T17:48:07.255Z,25.58
2022-10-31T17:52:52.541Z,28.98
2022-10-31T17:57:38.638Z,24.52
2022-10-31T18:02:24.063Z,22.67
2022-10-31T18:07:12.092Z,18.70
2022-10-31T18:11:57.317Z,14.95
2022-10-31T18:16:42.626Z,15.18
2022-10-31T18:21:27.813Z,19.25
2022-10-31T18:26:15.778Z,20.40
2022-10-31T18:31:02.350Z,15.48
2022-10-31T18:35:47.631Z,13.98
2022-10-31T18:40:32.648Z,9.45
2022-10-31T18:45:33.934Z,11.98
2022-10-31T18:50:26.428Z,15.30
2022-10-31T18:55:12.331Z,21.15
2022-10-31T18:59:57.654Z,11.82
2022-10-31T19:04:45.283Z,16.52
2022-10-31T19:09:31.117Z,14.07
2022-10-31T19:14:16.973Z,28.30
2022-10-31T19:19:02.939Z,23.13
2022-10-31T19:23:50.626Z,21.95
2022-10-31T19:28:37.515Z,24.27
2022-10-31T19:33:22.464Z,24.05
2022-10-31T19:38:07.726Z,18.85
2022-10-31T19:42:55.282Z,20.55
2022-10-31T19:47:40.534Z,22.30
2022-10-31T19:52:25.560Z,28.83
2022-10-31T19:57:10.888Z,20.75
2022-10-31T20:01:58.543Z,26.83
2022-10-31T20:06:44.606Z,31.23
2022-10-31T20:11:31.036Z,25.50
2022-10-31T20:16:17.909Z,39.40
2022-10-31T20:21:10.526Z,31.23
2022-10-31T20:25:55.772Z,40.05
2022-10-31T20:30:40.809Z,34.40
2022-10-31T20:35:26.178Z,40.92
2022-10-31T20:40:14.433Z,40.38
2022-10-31T20:44:59.860Z,42.78
2022-10-31T20:49:44.831Z,35.75
2022-10-31T20:54:30.075Z,30.60
2022-10-31T20:59:19.519Z,26.55
2022-10-31T21:04:05.370Z,34.45
2022-10-31T21:08:50.846Z,22.77
2022-10-31T21:13:40.775Z,21.20
2022-10-31T21:18:28.759Z,26.10
2022-10-31T21:23:15.904Z,24.05
2022-10-31T21:28:01.234Z,23.27
2022-10-31T21:32:46.825Z,26.95
2022-10-31T21:37:34.618Z,23.08
2022-10-31T21:42:21.556Z,27.42
2022-10-31T21:47:06.808Z,25.13
2022-10-31T21:51:52.103Z,18.15
2022-10-31T21:56:40.430Z,23.23
2022-10-31T22:01:27.894Z,21.58
2022-10-31T22:06:14.705Z,20.40
2022-10-31T22:11:00.006Z,24.23
2022-10-31T22:15:47.640Z,29.17
2022-10-31T22:20:33.597Z,25.08
2022-10-31T22:25:18.806Z,25.45
2022-10-31T22:30:04.091Z,30.80
2022-10-31T22:34:51.748Z,27.90
2022-10-31T22:39:37.016Z,25.52
2022-10-31T22:44:22.054Z,27.40
2022-10-31T22:49:09.687Z,29.80
2022-10-31T22:53:58.146Z,22.05
2022-10-31T22:58:43.631Z,27.42
2022-10-31T23:03:29.191Z,24.55
2022-10-31T23:08:14.720Z,21.33
2022-10-31T23:13:15.019Z,24.60
2022-10-31T23:18:00.924Z,24.48
2022-10-31T23:22:46.112Z,19.38
2022-10-31T23:27:31.437Z,20.45
2022-10-31T23:32:25.357Z,21.83
2022-10-31T23:37:11.580Z,21.13
2022-10-31T23:41:56.603Z,22.30
2022-10-31T23:46:41.878Z,24.55
2022-10-31T23:51:29.508Z,16.38
2022-10-31T23:56:14.857Z,22.33
